Time;durP1;ratioP1;P1;durP2;ratioP2;P2;SDS_P1;SDS_P2;PMS_P1;PMS_P2;Temp;Humidity;BMP_temperature;BMP_pressure;BME280_temperature;BME280_humidity;BME280_pressure;Samples;Min_cycle;Max_cycle;Signal;HPM_P1;HPM_P2
2022/10/05 00:00:22;;;;;;;2.05;1.85;;;;;;;8.90;86.09;95554.31;5129404;27;20652;-74
2022/10/05 00:02:51;;;;;;;1.70;1.45;;;;;;;8.77;86.34;95545.06;5129806;27;20677;-75
2022/10/05 00:05:26;;;;;;;2.30;1.98;;;;;;;8.87;85.93;95534.09;5129553;27;20316;-74
2022/10/05 00:07:56;;;;;;;1.95;1.75;;;;;;;8.75;86.50;95541.84;5130623;27;20666;-74
2022/10/05 00:10:24;;;;;;;2.10;1.63;;;;;;;8.69;86.75;95544.91;5130888;27;20200;-74
2022/10/05 00:12:50;;;;;;;2.70;1.80;;;;;;;8.65;87.17;95546.59;5130373;27;20282;-75
2022/10/05 00:15:19;;;;;;;2.63;1.70;;;;;;;8.63;87.04;95532.56;5129890;27;20201;-74
2022/10/05 00:17:47;;;;;;;1.42;1.33;;;;;;;8.62;87.26;95547.16;5129618;27;20209;-74
2022/10/05 00:20:17;;;;;;;2.40;1.38;;;;;;;8.65;87.10;95538.50;5130407;28;20297;-74
2022/10/05 00:22:45;;;;;;;1.50;1.40;;;;;;;8.55;87.35;95542.16;5130676;28;20230;-75
2022/10/05 00:25:15;;;;;;;2.80;1.75;;;;;;;8.50;87.72;95539.50;5130395;28;20224;-75
2022/10/05 00:27:42;;;;;;;2.92;2.13;;;;;;;8.52;87.96;95542.72;5130046;28;20679;-75
2022/10/05 00:30:14;;;;;;;3.83;1.73;;;;;;;8.52;88.08;95538.13;5130197;28;20201;-75
2022/10/05 00:32:41;;;;;;;2.55;1.80;;;;;;;8.52;87.99;95532.72;5130126;28;20256;-75
2022/10/05 00:35:11;;;;;;;4.53;2.13;;;;;;;8.50;88.09;95537.63;5129903;28;20209;-76
2022/10/05 00:37:38;;;;;;;3.78;1.88;;;;;;;8.52;88.16;95538.13;5130150;28;20266;-75
2022/10/05 00:40:14;;;;;;;3.50;1.30;;;;;;;8.55;88.13;95542.94;5130002;28;20213;-75
2022/10/05 00:42:51;;;;;;;2.78;1.58;;;;;;;8.48;88.39;95531.69;5130255;27;20192;-75
2022/10/05 00:45:23;;;;;;;2.08;1.48;;;;;;;8.42;88.76;95530.19;5130029;28;20228;-75
2022/10/05 00:48:00;;;;;;;2.45;1.88;;;;;;;8.43;88.68;95536.38;5129088;28;20254;-75
2022/10/05 00:50:52;;;;;;;1.27;1.17;;;;;;;8.49;88.56;95541.41;5129649;28;20236;-75
2022/10/05 00:53:31;;;;;;;1.65;1.50;;;;;;;8.58;88.17;95543.47;5126860;28;20216;-75
2022/10/05 00:56:05;;;;;;;1.50;1.35;;;;;;;8.71;87.59;95546.25;5129875;28;20270;-75
2022/10/05 00:58:44;;;;;;;4.05;1.65;;;;;;;8.63;87.86;95548.78;5130289;28;20688;-75
2022/10/05 01:01:14;;;;;;;6.80;2.53;;;;;;;8.23;89.70;95548.22;5130085;28;20193;-76
2022/10/05 01:03:55;;;;;;;3.22;2.45;;;;;;;7.96;91.01;95556.09;5130206;28;20253;-75
2022/10/05 01:06:29;;;;;;;4.13;2.72;;;;;;;7.69;92.25;95557.47;5130837;27;20197;-75
2022/10/05 01:09:07;;;;;;;5.32;3.65;;;;;;;7.57;93.20;95573.25;5134275;27;20204;-76
2022/10/05 01:11:41;;;;;;;7.00;3.25;;;;;;;7.46;93.99;95575.25;5133563;27;20675;-75
2022/10/05 01:14:17;;;;;;;5.15;2.95;;;;;;;7.36;94.55;95579.94;5133819;27;20281;-76
2022/10/05 01:16:51;;;;;;;3.88;2.95;;;;;;;7.27;95.67;95581.63;5133270;27;20228;-75
2022/10/05 01:19:39;;;;;;;8.07;3.55;;;;;;;7.21;96.49;95582.75;5132181;27;20227;-75
2022/10/05 01:22:18;;;;;;;9.50;3.67;;;;;;;7.25;96.40;95573.00;5133423;27;20297;-76
2022/10/05 01:24:57;;;;;;;10.00;7.03;;;;;;;7.11;96.73;95581.75;5133833;27;20201;-75
2022/10/05 01:27:45;;;;;;;9.25;7.03;;;;;;;7.01;97.25;95581.84;5132972;27;20279;-75
2022/10/05 01:30:15;;;;;;;9.63;6.63;;;;;;;6.98;97.54;95582.38;5133052;27;20267;-76
2022/10/05 01:32:46;;;;;;;3.17;2.85;;;;;;;6.89;98.37;95592.16;5132605;27;20610;-75
2022/10/05 01:35:25;;;;;;;5.45;3.10;;;;;;;6.86;98.37;95600.00;5133047;27;20257;-76
2022/10/05 01:38:01;;;;;;;4.72;3.20;;;;;;;6.81;98.69;95595.47;5133350;27;20378;-76
2022/10/05 01:40:36;;;;;;;7.53;3.95;;;;;;;6.82;98.78;95602.47;5133441;27;20250;-75
2022/10/05 01:43:15;;;;;;;5.57;3.60;;;;;;;6.78;98.99;95601.41;5133314;27;20201;-75
2022/10/05 01:45:55;;;;;;;7.82;3.60;;;;;;;6.71;99.89;95611.66;5132904;27;20257;-75
2022/10/05 01:48:33;;;;;;;5.75;3.33;;;;;;;6.68;100.00;95609.56;5132862;27;20205;-75
2022/10/05 01:51:11;;;;;;;12.88;7.72;;;;;;;6.62;100.00;95618.72;5132058;27;20229;-75
2022/10/05 01:53:48;;;;;;;12.40;7.88;;;;;;;6.57;100.00;95621.44;5132645;27;20197;-75
2022/10/05 01:56:22;;;;;;;9.25;7.28;;;;;;;6.59;100.00;95630.03;5132710;27;20266;-75
2022/10/05 01:59:01;;;;;;;10.07;7.60;;;;;;;6.57;100.00;95629.50;5132721;27;20253;-75
2022/10/05 02:01:36;;;;;;;10.43;7.78;;;;;;;6.57;100.00;95630.31;5132754;27;20201;-75
2022/10/05 02:04:08;;;;;;;12.68;7.97;;;;;;;6.53;100.00;95637.34;5132263;27;20196;-76
2022/10/05 02:06:40;;;;;;;13.73;8.23;;;;;;;6.47;100.00;95637.66;5132580;27;20724;-75
2022/10/05 02:09:13;;;;;;;12.35;8.43;;;;;;;6.37;100.00;95636.63;5132671;27;20231;-76
2022/10/05 02:11:43;;;;;;;12.57;8.18;;;;;;;6.30;100.00;95633.41;5132536;27;20288;-76
2022/10/05 02:14:17;;;;;;;4.38;2.97;;;;;;;6.32;100.00;95630.44;5132834;27;20709;-76
2022/10/05 02:16:46;;;;;;;7.00;4.45;;;;;;;6.28;100.00;95627.53;5132783;27;20231;-77
2022/10/05 02:19:19;;;;;;;6.85;4.00;;;;;;;6.24;100.00;95622.97;5131521;27;20827;-77
2022/10/05 02:21:51;;;;;;;4.90;2.88;;;;;;;6.30;100.00;95627.22;5131153;27;20205;-76
2022/10/05 02:24:23;;;;;;;3.60;2.95;;;;;;;6.27;100.00;95636.66;5132497;27;20201;-76
2022/10/05 02:26:53;;;;;;;5.53;3.15;;;;;;;6.32;100.00;95631.25;5132948;27;20293;-76
2022/10/05 02:29:25;;;;;;;4.15;3.03;;;;;;;6.33;100.00;95632.84;5132443;27;20246;-77
2022/10/05 02:31:57;;;;;;;4.43;2.45;;;;;;;6.24;100.00;95631.84;5132005;27;20744;-75
2022/10/05 02:34:26;;;;;;;4.47;3.00;;;;;;;6.25;100.00;95636.13;5132069;27;20689;-75
2022/10/05 02:37:07;;;;;;;5.32;3.00;;;;;;;6.18;100.00;95624.84;5132169;27;20631;-77
2022/10/05 02:39:41;;;;;;;5.50;2.80;;;;;;;6.24;100.00;95637.22;5132192;27;20250;-76
2022/10/05 02:42:15;;;;;;;3.03;2.75;;;;;;;6.09;100.00;95639.94;5131515;27;20674;-76
2022/10/05 02:44:51;;;;;;;4.13;3.30;;;;;;;6.08;100.00;95638.34;5132115;27;20220;-75
2022/10/05 02:47:28;;;;;;;3.50;2.60;;;;;;;6.04;100.00;95650.72;5131064;27;20246;-75
2022/10/05 02:50:03;;;;;;;3.35;2.75;;;;;;;6.03;100.00;95635.66;5130724;27;20224;-75
2022/10/05 02:52:41;;;;;;;4.07;2.83;;;;;;;6.04;100.00;95639.97;5130945;27;20283;-77
2022/10/05 02:55:15;;;;;;;5.28;3.22;;;;;;;6.01;100.00;95635.16;5131442;27;20606;-76
2022/10/05 02:57:48;;;;;;;5.85;3.17;;;;;;;6.09;100.00;95629.19;5131357;27;20624;-76
2022/10/05 03:00:20;;;;;;;2.85;2.55;;;;;;;5.99;100.00;95629.25;5131127;27;20242;-76
2022/10/05 03:02:54;;;;;;;4.72;2.80;;;;;;;5.93;100.00;95635.69;5131057;27;20205;-76
2022/10/05 03:05:25;;;;;;;4.07;2.95;;;;;;;5.88;100.00;95625.75;5131058;27;20237;-76
2022/10/05 03:08:00;;;;;;;4.55;3.45;;;;;;;5.95;100.00;95642.41;5131559;27;20197;-76
2022/10/05 03:10:34;;;;;;;6.95;4.18;;;;;;;5.87;100.00;95639.47;5131941;27;20196;-76
2022/10/05 03:13:05;;;;;;;5.30;3.65;;;;;;;5.82;100.00;95647.53;5131554;27;20385;-76
2022/10/05 03:16:02;;;;;;;3.95;2.65;;;;;;;5.85;100.00;95647.00;5131487;27;20205;-76
2022/10/05 03:18:40;;;;;;;6.78;2.92;;;;;;;5.91;100.00;95651.28;5128253;27;20437;-76
2022/10/05 03:21:21;;;;;;;8.88;3.58;;;;;;;5.90;100.00;95657.75;5131255;27;20621;-76
2022/10/05 03:24:01;;;;;;;4.07;2.90;;;;;;;5.92;100.00;95652.91;5124519;27;20197;-76
2022/10/05 03:26:39;;;;;;;7.35;2.83;;;;;;;5.90;100.00;95649.69;5120987;27;20197;-76
2022/10/05 03:29:16;;;;;;;4.38;2.78;;;;;;;5.95;100.00;95655.06;5130265;27;20257;-76
2022/10/05 03:31:49;;;;;;;4.13;2.80;;;;;;;5.93;100.00;95655.31;5131474;27;20245;-76
2022/10/05 03:34:21;;;;;;;4.78;2.50;;;;;;;5.93;100.00;95659.91;5131422;27;20197;-76
2022/10/05 03:36:54;;;;;;;4.78;2.80;;;;;;;5.99;100.00;95669.56;5130738;27;20339;-76
2022/10/05 03:39:30;;;;;;;5.35;3.17;;;;;;;5.86;100.00;95675.50;5130908;27;20197;-77
2022/10/05 03:42:08;;;;;;;3.72;2.67;;;;;;;5.74;100.00;95675.75;5130872;27;20683;-75
2022/10/05 03:44:49;;;;;;;10.32;3.17;;;;;;;5.78;100.00;95684.09;5131094;27;20317;-77
2022/10/05 03:47:25;;;;;;;8.38;4.47;;;;;;;5.87;100.00;95687.84;5130548;27;20204;-77
2022/10/05 03:50:22;;;;;;;6.05;3.83;;;;;;;6.01;100.00;95688.94;5130138;27;20569;-78
2022/10/05 03:52:54;;;;;;;8.85;2.97;;;;;;;5.88;100.00;95694.81;5123042;27;20205;-77
2022/10/05 03:55:28;;;;;;;3.67;2.38;;;;;;;5.80;100.00;95698.06;5129894;27;20205;-75
2022/10/05 03:57:59;;;;;;;4.90;2.60;;;;;;;5.65;100.00;95707.75;5130134;27;20225;-75
2022/10/05 04:00:29;;;;;;;8.32;6.50;;;;;;;5.60;100.00;95710.44;5130089;27;20756;-77
2022/10/05 04:03:04;;;;;;;9.15;6.43;;;;;;;5.50;100.00;95705.06;5129652;27;20682;-76
2022/10/05 04:05:35;;;;;;;9.50;6.50;;;;;;;5.65;100.00;95718.50;5130060;27;20216;-76
2022/10/05 04:08:06;;;;;;;10.48;6.57;;;;;;;5.54;100.00;95706.16;5129751;27;20216;-75
2022/10/05 04:10:40;;;;;;;10.73;6.93;;;;;;;5.59;100.00;95714.22;5129649;27;20189;-76
2022/10/05 04:13:14;;;;;;;11.60;7.18;;;;;;;5.58;100.00;95718.00;5129820;27;20214;-78
2022/10/05 04:15:46;;;;;;;4.32;2.22;;;;;;;5.61;100.00;95722.81;5130678;27;20189;-81
2022/10/05 04:18:24;;;;;;;6.43;3.08;;;;;;;5.61;100.00;95712.06;5130087;27;20228;-78
2022/10/05 04:20:58;;;;;;;4.75;2.88;;;;;;;5.65;100.00;95715.81;5130314;28;20208;-77
2022/10/05 04:23:38;;;;;;;3.97;2.90;;;;;;;5.74;100.00;95718.75;5129585;28;20197;-77
2022/10/05 04:26:11;;;;;;;5.95;3.42;;;;;;;5.76;100.00;95716.63;5128264;28;20822;-78
2022/10/05 04:28:45;;;;;;;4.32;3.00;;;;;;;5.70;100.00;95718.53;5129538;28;20196;-77
2022/10/05 04:31:19;;;;;;;5.78;3.08;;;;;;;5.79;100.00;95718.78;5129042;28;20601;-77
2022/10/05 04:33:57;;;;;;;5.63;3.55;;;;;;;5.83;100.00;95710.97;5128450;28;20185;-77
2022/10/05 04:36:29;;;;;;;5.85;3.45;;;;;;;5.92;100.00;95723.63;5129455;28;20200;-76
2022/10/05 04:39:07;;;;;;;15.55;3.45;;;;;;;6.00;100.00;95722.28;5130491;28;20273;-77
2022/10/05 04:41:53;;;;;;;4.35;2.78;;;;;;;6.00;100.00;95727.66;5132366;27;20242;-77
2022/10/05 04:44:39;;;;;;;12.70;3.05;;;;;;;6.14;100.00;95731.41;5134368;27;20280;-77
2022/10/05 04:47:30;;;;;;;4.35;3.00;;;;;;;6.20;100.00;95733.00;5134840;27;20232;-78
2022/10/05 04:50:14;;;;;;;3.65;2.58;;;;;;;6.08;100.00;95743.25;5134012;27;20237;-77
2022/10/05 04:52:49;;;;;;;6.00;3.35;;;;;;;6.33;100.00;95745.88;5134384;27;20184;-77
2022/10/05 04:55:28;;;;;;;3.25;2.17;;;;;;;6.37;99.61;95757.72;5134463;27;20261;-77
2022/10/05 04:58:03;;;;;;;3.13;2.15;;;;;;;6.39;98.97;95750.19;5134192;27;20274;-77
2022/10/05 05:00:38;;;;;;;6.65;3.58;;;;;;;6.52;99.11;95748.78;5134667;27;20193;-77
2022/10/05 05:03:22;;;;;;;6.15;3.92;;;;;;;6.69;98.51;95737.72;5133820;27;20201;-76
2022/10/05 05:06:00;;;;;;;6.28;4.82;;;;;;;6.72;97.68;95739.81;5133872;27;20208;-76
2022/10/05 05:08:41;;;;;;;5.25;3.42;;;;;;;6.94;97.61;95732.19;5133042;27;20250;-76
2022/10/05 05:11:24;;;;;;;3.50;2.72;;;;;;;7.18;97.08;95742.31;5133377;27;20633;-76
2022/10/05 05:14:36;;;;;;;10.70;3.75;;;;;;;8.35;96.22;95737.59;5133961;27;20220;-76
2022/10/05 05:17:17;;;;;;;4.28;2.85;;;;;;;10.36;89.59;95731.53;5049736;28;20279;-76
2022/10/05 05:19:53;;;;;;;11.32;4.28;;;;;;;11.46;79.95;95728.75;5121617;27;20225;-77
2022/10/05 05:22:31;;;;;;;6.07;3.95;;;;;;;12.35;75.58;95720.63;5134091;27;20201;-78
2022/10/05 05:25:16;;;;;;;9.15;4.55;;;;;;;13.16;73.56;95718.41;5133250;27;20201;-78
2022/10/05 05:27:46;;;;;;;6.93;3.83;;;;;;;13.57;71.42;95719.91;5132551;27;20262;-77
2022/10/05 05:30:24;;;;;;;4.43;3.47;;;;;;;14.37;68.13;95710.19;5132987;27;20198;-78
2022/10/05 05:33:09;;;;;;;8.18;3.60;;;;;;;15.32;64.89;95710.59;5133510;27;20201;-77
2022/10/05 05:36:06;;;;;;;7.85;4.65;;;;;;;15.49;62.05;95710.50;5133589;27;20258;-77
2022/10/05 05:38:38;;;;;;;5.40;3.58;;;;;;;16.21;59.45;95714.75;5133133;27;20239;-77
2022/10/05 05:41:10;;;;;;;7.50;5.03;;;;;;;16.93;57.63;95710.63;5133447;27;20210;-77
2022/10/05 05:43:57;;;;;;;7.88;4.70;;;;;;;16.50;56.77;95704.81;5135885;27;20285;-77
2022/10/05 05:46:28;;;;;;;11.52;3.42;;;;;;;17.31;54.29;95706.72;5140154;27;20201;-77
2022/10/05 05:48:57;;;;;;;6.05;4.13;;;;;;;16.75;56.94;95722.09;5140767;27;20500;-76
2022/10/05 05:51:30;;;;;;;10.07;4.00;;;;;;;16.85;57.33;95714.25;5137943;27;20656;-76
2022/10/05 05:54:22;;;;;;;6.85;4.15;;;;;;;16.99;56.13;95720.19;5132184;27;20582;-76
2022/10/05 05:56:53;;;;;;;7.38;3.63;;;;;;;16.45;56.97;95727.69;5132918;27;20201;-76
2022/10/05 05:59:24;;;;;;;5.20;3.00;;;;;;;16.92;55.35;95732.84;5131847;27;20221;-77
2022/10/05 06:01:53;;;;;;;4.65;3.55;;;;;;;16.47;56.81;95735.56;5132979;27;20682;-76
2022/10/05 06:04:27;;;;;;;5.18;2.72;;;;;;;15.71;58.72;95734.00;5132726;27;20221;-76
2022/10/05 06:06:58;;;;;;;5.43;3.60;;;;;;;16.16;57.26;95736.03;5132815;27;20215;-74
2022/10/05 06:09:40;;;;;;;4.80;3.10;;;;;;;15.05;59.97;95743.84;5132376;27;20201;-76
2022/10/05 06:12:12;;;;;;;9.15;5.18;;;;;;;15.34;60.46;95735.66;5133000;27;20205;-76
2022/10/05 06:14:44;;;;;;;7.03;4.70;;;;;;;16.17;57.90;95746.63;5132650;27;20524;-74
2022/10/05 06:17:17;;;;;;;5.28;3.20;;;;;;;16.76;55.88;95735.44;5132133;27;20189;-77
2022/10/05 06:19:47;;;;;;;12.88;2.72;;;;;;;17.02;54.92;95741.41;5131712;27;20277;-75
2022/10/05 06:22:18;;;;;;;4.70;3.30;;;;;;;16.72;55.79;95748.19;5132330;27;20208;-74
2022/10/05 06:25:01;;;;;;;6.00;3.28;;;;;;;15.62;59.36;95755.91;5133124;27;20220;-75
2022/10/05 06:27:35;;;;;;;4.15;2.95;;;;;;;15.16;61.42;95756.00;5132359;27;20640;-75
2022/10/05 06:30:09;;;;;;;4.35;2.88;;;;;;;14.80;63.39;95770.09;5132020;27;20204;-76
2022/10/05 06:33:03;;;;;;;10.98;3.45;;;;;;;15.24;61.80;95774.25;5132228;27;20719;-77
2022/10/05 06:35:45;;;;;;;9.02;5.57;;;;;;;15.80;59.46;95772.19;5131300;27;20652;-76
2022/10/05 06:38:27;;;;;;;8.95;3.95;;;;;;;16.57;58.19;95770.69;5132090;27;20271;-74
2022/10/05 06:41:09;;;;;;;8.90;3.40;;;;;;;17.20;55.92;95776.81;5118551;27;20720;-77
2022/10/05 06:43:50;;;;;;;4.93;3.30;;;;;;;17.36;55.32;95777.69;5131756;27;20372;-76
2022/10/05 06:46:22;;;;;;;5.63;3.42;;;;;;;17.31;55.37;95784.22;5131884;27;20193;-75
2022/10/05 06:49:08;;;;;;;4.82;3.05;;;;;;;15.81;59.59;95792.91;5132036;27;20284;-75
2022/10/05 06:51:43;;;;;;;5.45;2.70;;;;;;;15.20;60.91;95792.41;5131433;27;20627;-75
2022/10/05 06:54:26;;;;;;;3.10;2.35;;;;;;;14.91;61.60;95793.97;5131810;27;20261;-78
2022/10/05 06:57:03;;;;;;;3.58;2.42;;;;;;;14.53;63.46;95804.81;5131999;27;20196;-75
2022/10/05 06:59:38;;;;;;;5.28;2.95;;;;;;;14.65;63.33;95809.63;5131075;27;20216;-75
2022/10/05 07:02:11;;;;;;;6.80;4.18;;;;;;;14.52;62.68;95816.06;5131532;27;20660;-76
2022/10/05 07:04:53;;;;;;;5.72;3.40;;;;;;;13.87;65.14;95797.94;5131180;27;20776;-74
2022/10/05 07:07:28;;;;;;;7.95;4.38;;;;;;;13.50;67.40;95805.59;5131881;27;20677;-78
2022/10/05 07:10:09;;;;;;;5.28;4.25;;;;;;;13.49;67.01;95797.72;5131871;27;20355;-74
2022/10/05 07:13:05;;;;;;;10.15;6.25;;;;;;;13.84;65.68;95784.94;5112936;27;20245;-73
2022/10/05 07:15:42;;;;;;;4.35;3.45;;;;;;;14.05;65.11;95794.13;5131354;27;20208;-76
2022/10/05 07:18:46;;;;;;;6.03;3.35;;;;;;;13.52;66.07;95789.75;5130849;27;20236;-75
2022/10/05 07:21:23;;;;;;;7.00;4.30;;;;;;;13.46;67.40;95793.72;5117508;27;20205;-76
2022/10/05 07:23:59;;;;;;;9.95;5.82;;;;;;;13.15;68.29;95801.13;5131008;27;20200;-75
2022/10/05 07:26:31;;;;;;;3.70;2.70;;;;;;;13.16;68.23;95789.13;5118255;27;20208;-76
2022/10/05 07:29:29;;;;;;;9.30;5.30;;;;;;;13.12;69.36;95799.00;5131005;27;20193;-75
2022/10/05 07:32:06;;;;;;;5.60;4.03;;;;;;;12.91;68.42;95781.66;5129826;27;20720;-74
2022/10/05 07:34:43;;;;;;;4.78;3.45;;;;;;;12.88;68.97;95804.84;5131297;27;20250;-75
2022/10/05 07:40:10;;;;;;;4.00;2.65;;;;;;;12.64;69.81;95798.97;5130407;27;20211;-75
2022/10/05 07:42:59;;;;;;;3.03;2.35;;;;;;;13.04;67.95;95797.06;5130217;27;20208;-74
2022/10/05 07:45:31;;;;;;;2.70;1.95;;;;;;;13.19;68.10;95793.97;5130146;27;20201;-74
2022/10/05 07:48:04;;;;;;;3.58;2.03;;;;;;;13.26;65.85;95794.28;5131357;27;20262;-76
2022/10/05 07:50:38;;;;;;;3.40;2.70;;;;;;;13.75;66.29;95789.59;5130662;27;20232;-76
2022/10/05 07:53:14;;;;;;;4.40;3.60;;;;;;;13.45;67.10;95794.84;5131304;27;20681;-76
2022/10/05 07:55:48;;;;;;;2.67;2.20;;;;;;;13.24;67.15;95791.09;5130372;27;20208;-76
2022/10/05 07:58:21;;;;;;;4.63;2.65;;;;;;;13.48;66.57;95790.69;5130814;27;20221;-74
2022/10/05 08:01:05;;;;;;;5.05;3.47;;;;;;;13.71;65.65;95788.63;5130398;27;20684;-74
2022/10/05 08:03:42;;;;;;;1.92;1.67;;;;;;;13.81;65.65;95793.75;5130038;27;20265;-75
2022/10/05 08:06:16;;;;;;;2.33;1.75;;;;;;;13.73;65.91;95794.56;5130382;27;20192;-76
2022/10/05 08:08:52;;;;;;;2.95;2.30;;;;;;;13.87;65.02;95803.38;5131080;27;20205;-74
2022/10/05 08:11:24;;;;;;;2.55;2.05;;;;;;;13.66;65.30;95807.84;5130715;27;20278;-75
2022/10/05 08:13:55;;;;;;;3.70;2.13;;;;;;;13.62;66.59;95812.34;5130689;27;20250;-73
2022/10/05 08:16:28;;;;;;;4.20;1.73;;;;;;;13.71;65.46;95804.97;5129743;27;20233;-77
2022/10/05 08:18:59;;;;;;;2.67;2.20;;;;;;;13.29;67.22;95810.00;5130574;27;20282;-80
2022/10/05 08:21:34;;;;;;;3.58;2.60;;;;;;;13.21;67.71;95818.94;5130911;27;20253;-77
2022/10/05 08:24:10;;;;;;;5.82;2.92;;;;;;;13.29;67.39;95820.88;5130689;28;20326;-76
2022/10/05 08:26:47;;;;;;;10.10;3.22;;;;;;;13.53;68.22;95821.25;5130580;28;20197;-75
2022/10/05 08:29:21;;;;;;;6.85;4.03;;;;;;;13.91;66.05;95803.56;5130670;28;20220;-75
2022/10/05 08:31:55;;;;;;;5.35;2.97;;;;;;;14.23;66.27;95805.78;5130339;28;20204;-75
2022/10/05 08:34:29;;;;;;;3.28;2.42;;;;;;;14.36;65.39;95814.91;5129374;28;20332;-74
2022/10/05 08:37:03;;;;;;;2.85;2.55;;;;;;;14.36;65.30;95814.91;5130287;28;20197;-74
2022/10/05 08:39:35;;;;;;;0.77;0.77;;;;;;;14.20;65.47;95818.16;5130615;27;20647;-75
2022/10/05 08:42:35;;;;;;;5.63;2.35;;;;;;;13.98;65.15;95820.22;5130667;28;20201;-77
2022/10/05 08:45:44;;;;;;;9.43;4.68;;;;;;;13.97;65.80;95808.50;5130457;28;20204;-74
2022/10/05 08:48:42;;;;;;;4.47;2.42;;;;;;;14.36;65.52;95804.00;5120105;28;20667;-77
2022/10/05 08:51:45;;;;;;;3.83;2.40;;;;;;;14.26;64.72;95809.78;5130332;28;20229;-74
2022/10/05 08:54:40;;;;;;;2.00;1.52;;;;;;;14.09;64.69;95811.41;5130126;28;20261;-80
2022/10/05 08:57:45;;;;;;;5.05;2.92;;;;;;;14.39;65.23;95797.91;5115440;28;20209;-76
2022/10/05 09:00:16;;;;;;;4.13;2.47;;;;;;;14.66;63.27;95805.75;5130403;28;20232;-76
2022/10/05 09:03:19;;;;;;;6.00;3.10;;;;;;;14.48;62.79;95804.22;5129593;28;20250;-76
2022/10/05 09:06:17;;;;;;;4.95;2.08;;;;;;;14.33;62.93;95805.47;5120978;28;20667;-76
2022/10/05 09:09:10;;;;;;;6.47;3.80;;;;;;;14.27;62.23;95817.66;5119184;28;20250;-75
2022/10/05 09:11:39;;;;;;;2.90;1.95;;;;;;;14.61;59.83;95800.50;5094062;28;20253;-75
2022/10/05 09:14:24;;;;;;;3.40;2.53;;;;;;;14.73;62.07;95817.00;5129592;28;20216;-74
2022/10/05 09:17:01;;;;;;;3.63;2.25;;;;;;;14.72;61.29;95812.66;5129940;28;20683;-76
2022/10/05 09:19:51;;;;;;;8.52;2.80;;;;;;;14.80;58.95;95803.63;5129568;28;20301;-77
2022/10/05 09:22:33;;;;;;;4.55;2.83;;;;;;;15.04;59.38;95808.53;5130189;28;20205;-76
2022/10/05 09:25:14;;;;;;;3.50;2.08;;;;;;;15.31;58.19;95804.56;5130303;28;20189;-76
2022/10/05 09:27:49;;;;;;;2.55;1.27;;;;;;;15.10;53.31;95812.69;5131643;27;20220;-75
2022/10/05 09:30:26;;;;;;;1.40;1.17;;;;;;;15.15;53.36;95806.25;5133583;27;20544;-74
2022/10/05 09:33:28;;;;;;;2.17;1.33;;;;;;;15.20;54.09;95803.34;5133524;27;20284;-75
2022/10/05 09:36:32;;;;;;;3.25;1.40;;;;;;;15.06;56.03;95800.03;5128814;27;20200;-75
2022/10/05 09:39:34;;;;;;;6.70;2.38;;;;;;;15.03;54.88;95811.63;5133647;27;20635;-78
2022/10/05 09:42:31;;;;;;;1.60;1.42;;;;;;;15.42;54.51;95811.28;5133326;27;20544;-76
2022/10/05 09:45:25;;;;;;;5.28;1.38;;;;;;;15.56;53.70;95809.16;5133396;27;20205;-77
2022/10/05 09:48:31;;;;;;;1.75;1.00;;;;;;;15.80;51.85;95804.97;5133479;27;20262;-75
2022/10/05 09:51:18;;;;;;;1.05;0.80;;;;;;;15.53;52.68;95809.78;5133007;27;20289;-75
2022/10/05 09:54:07;;;;;;;3.58;1.30;;;;;;;15.52;52.33;95808.16;5133262;27;20197;-75
2022/10/05 09:57:10;;;;;;;0.32;0.32;;;;;;;15.09;51.86;95815.75;5133314;27;20209;-77
2022/10/05 10:00:10;;;;;;;1.33;0.73;;;;;;;15.07;51.84;95812.53;5132763;27;20353;-79
2022/10/05 10:02:58;;;;;;;4.25;1.40;;;;;;;14.99;52.72;95810.66;5127893;27;20232;-76
2022/10/05 10:05:47;;;;;;;2.13;1.60;;;;;;;15.05;52.42;95806.59;5132396;27;20660;-75
2022/10/05 10:08:25;;;;;;;5.55;2.55;;;;;;;15.33;52.08;95805.03;5131565;27;20209;-76
2022/10/05 10:11:11;;;;;;;1.90;1.52;;;;;;;15.93;52.31;95806.66;5132700;27;20269;-74
2022/10/05 10:14:37;;;;;;;2.85;1.77;;;;;;;16.44;51.41;95799.16;5133054;27;20200;-76
2022/10/05 10:17:32;;;;;;;2.63;1.20;;;;;;;16.72;49.15;95805.66;5132873;27;20205;-74
2022/10/05 10:20:18;;;;;;;2.38;1.30;;;;;;;16.65;48.69;95802.69;5129445;27;20228;-75
2022/10/05 10:23:09;;;;;;;2.63;1.33;;;;;;;17.20;48.56;95798.72;5130918;27;20204;-74
2022/10/05 10:26:12;;;;;;;1.50;1.10;;;;;;;16.99;48.19;95805.06;5132042;27;20344;-75
2022/10/05 10:29:09;;;;;;;2.03;1.20;;;;;;;15.81;48.22;95815.56;5118894;27;20663;-78
2022/10/05 10:31:50;;;;;;;1.75;1.20;;;;;;;16.27;49.00;95794.63;5132247;27;20751;-74
2022/10/05 10:34:42;;;;;;;1.83;1.38;;;;;;;15.81;48.02;95801.91;5132449;27;20193;-76
2022/10/05 10:37:33;;;;;;;3.92;1.20;;;;;;;15.84;48.79;95797.72;5131896;27;20201;-74
2022/10/05 10:40:22;;;;;;;1.40;1.25;;;;;;;15.74;49.31;95792.63;5130828;27;20718;-78
2022/10/05 10:43:08;;;;;;;1.67;1.27;;;;;;;16.00;49.01;95785.03;5132418;27;20260;-75
2022/10/05 10:45:47;;;;;;;1.35;1.10;;;;;;;16.66;47.98;95779.69;5131970;27;20363;-76
2022/10/05 10:48:56;;;;;;;2.15;1.20;;;;;;;16.91;45.61;95781.31;5131806;27;20253;-75
2022/10/05 10:52:07;;;;;;;3.60;1.58;;;;;;;17.12;46.75;95769.47;5132088;27;20211;-76
2022/10/05 10:55:03;;;;;;;1.45;1.15;;;;;;;17.44;46.76;95765.84;5119371;27;20736;-76
2022/10/05 10:57:44;;;;;;;2.90;1.50;;;;;;;17.56;45.41;95767.78;5131632;27;20204;-75
2022/10/05 11:00:39;;;;;;;1.92;1.13;;;;;;;17.32;45.21;95771.31;5131732;27;20300;-74
2022/10/05 11:03:49;;;;;;;2.13;1.55;;;;;;;17.14;46.43;95765.25;5131638;27;20260;-74
2022/10/05 11:06:39;;;;;;;4.28;1.40;;;;;;;17.09;45.81;95764.66;5131402;27;20288;-75
2022/10/05 11:09:29;;;;;;;2.45;1.33;;;;;;;17.14;45.22;95758.97;5131084;27;20209;-75
2022/10/05 11:12:35;;;;;;;2.22;1.33;;;;;;;17.32;45.20;95741.19;5131495;27;20541;-75
2022/10/05 11:15:35;;;;;;;5.50;1.40;;;;;;;17.50;44.49;95737.06;5128685;27;20683;-76
2022/10/05 11:18:19;;;;;;;2.05;1.48;;;;;;;17.62;44.65;95730.78;5131011;27;20229;-75
2022/10/05 11:21:35;;;;;;;3.03;1.67;;;;;;;17.83;44.34;95736.13;5131723;27;20227;-75
2022/10/05 11:24:37;;;;;;;2.25;1.45;;;;;;;17.68;44.09;95730.22;5067748;28;20194;-73
2022/10/05 11:27:33;;;;;;;2.00;1.30;;;;;;;17.73;44.89;95723.69;5130949;27;20279;-75
2022/10/05 11:30:27;;;;;;;1.35;1.23;;;;;;;17.41;46.15;95717.22;5123561;27;20362;-76
2022/10/05 11:33:37;;;;;;;3.22;1.67;;;;;;;17.36;44.42;95731.13;5120036;27;20201;-75
2022/10/05 11:36:36;;;;;;;1.88;1.33;;;;;;;17.37;44.00;95722.56;5131299;27;20266;-76
2022/10/05 11:39:32;;;;;;;2.20;1.20;;;;;;;17.46;45.13;95705.22;5130683;27;20228;-75
2022/10/05 11:42:31;;;;;;;2.40;1.42;;;;;;;17.92;42.67;95709.34;5130202;27;20617;-76
2022/10/05 11:45:21;;;;;;;1.58;0.93;;;;;;;17.51;39.78;95714.00;5130222;27;20276;-77
2022/10/05 11:48:20;;;;;;;1.20;0.70;;;;;;;16.95;40.20;95719.25;5131302;27;20232;-75
2022/10/05 11:51:03;;;;;;;1.13;0.95;;;;;;;16.79;41.77;95718.34;5113302;27;20236;-75
2022/10/05 11:53:37;;;;;;;1.33;1.10;;;;;;;16.52;42.41;95719.75;5130843;27;20219;-78
2022/10/05 11:56:16;;;;;;;1.10;0.90;;;;;;;16.53;41.65;95720.56;5131088;27;20257;-80
2022/10/05 11:58:52;;;;;;;1.15;0.80;;;;;;;16.73;41.59;95718.91;5130608;27;20253;-76
2022/10/05 12:01:29;;;;;;;1.80;1.05;;;;;;;17.03;40.31;95701.16;5130428;27;20611;-76
2022/10/05 12:04:05;;;;;;;1.85;0.90;;;;;;;17.42;39.73;95688.66;5130596;27;20302;-76
2022/10/05 12:06:52;;;;;;;1.55;0.80;;;;;;;17.56;40.46;95691.84;5130735;27;20643;-75
2022/10/05 12:09:33;;;;;;;1.73;1.00;;;;;;;17.86;40.02;95688.81;5130484;27;20205;-76
2022/10/05 12:12:12;;;;;;;1.08;0.90;;;;;;;17.69;40.15;95685.22;5129875;27;20253;-75
2022/10/05 12:14:51;;;;;;;1.13;1.00;;;;;;;17.09;41.60;95691.53;5130592;27;20624;-76
2022/10/05 12:17:27;;;;;;;2.22;1.27;;;;;;;16.88;41.78;95696.34;5130494;27;20237;-77
2022/10/05 12:19:59;;;;;;;1.42;1.25;;;;;;;16.78;42.85;95694.88;5130219;27;20224;-76
2022/10/05 12:22:32;;;;;;;2.13;1.20;;;;;;;17.03;42.49;95701.94;5130500;27;20231;-80
2022/10/05 12:25:22;;;;;;;2.20;1.23;;;;;;;16.97;42.04;95700.56;5130817;28;20216;-76
2022/10/05 12:27:52;;;;;;;1.27;1.13;;;;;;;16.92;40.61;95706.28;5130627;28;20278;-77
2022/10/05 12:30:26;;;;;;;1.20;1.00;;;;;;;16.73;42.16;95708.75;5134855;28;20257;-75
2022/10/05 12:33:02;;;;;;;1.63;1.13;;;;;;;16.81;41.23;95699.63;5133624;28;20196;-75
2022/10/05 12:35:33;;;;;;;2.17;1.30;;;;;;;17.28;42.50;95707.41;5132090;28;20539;-75
2022/10/05 12:38:10;;;;;;;1.45;1.00;;;;;;;17.50;40.43;95695.94;5131359;28;20209;-76